Darstellungsparameter: Aktuell verwendete Einstellungen:
Skalierung der Graphiken ... ?
xyx+y,   Skalierungsfaktor:      Skalierung: Modus: x, Faktor: 1
Darstellungszeitraum ... ?
Vom - - bis: - -   Zeitraum: 15.11.2015 - 15.11.2015
Min/Max/Avg-Anzeige ... ?
Zeige MMA aktuell
Zeige MMA Monat
Zeige MMA alles
Zeige --A aktuell
Zeige --A Monat
Zeige --A alles
Keine MMA-Anzeige
MMA:
Average (ber die Originaldaten)
MMA-Basis: 15.11.2015 - 15.11.2015
Quicknavigation für Darstellung... ?
Tage:      1T, 2T, 3T, 5T -1T -2T -3T -5T +1T +2T +3T +5T
Wochen: 1W, 2W, 3W -1W -2W -3W +1W +2W +3W
Monate: 1M, 3M, 6M -1M -3M -6M +1M +3M +6M
Jahre:    1J, 3J, 5J, 10J -1J -3J -5J -10J +1J +3J +5J +10J
Nutze für die Darstellung ... ?
Originaldaten oder Mittelwerte auf ...
Stundenbasis Tagesbasis Wochenbasis
Monatsbasis Jahresbasis      Datenbasis: Original-Daten
Darstellen als:
Statistik (Auto) Statistik J:M      Darstellung:
Zur Graphik,    zurück zur Übersicht aller Sensoren.
 
Tabellarische Datenbersicht: ?
 
Sensor: Nr:Datum:Temp:Abs-Feuchte:Windchill:Wind:
Aussen-T/F 1 15-11-2015 00:00:00 9.3 C 7.73 g/m*3 6.12 C 24.1 km/h
2 15-11-2015 00:05:00 9.3 C 7.73 g/m*3 6.73 C 17.7 km/h
3 15-11-2015 00:10:00 9.3 C 7.73 g/m*3 6.26 C 22.5 km/h
4 15-11-2015 00:15:00 9.4 C 7.78 g/m*3 5.98 C 27.4 km/h
5 15-11-2015 00:20:00 9.4 C 7.78 g/m*3 7.24 C 14.5 km/h
6 15-11-2015 00:25:00 9.4 C 7.78 g/m*3 6.38 C 22.5 km/h
7 15-11-2015 00:30:00 9.4 C 7.78 g/m*3 5.98 C 27.4 km/h
8 15-11-2015 00:35:00 9.4 C 7.78 g/m*3 5.07 C 41.8 km/h
9 15-11-2015 00:40:00 9.4 C 7.78 g/m*3 6.25 C 24.1 km/h
10 15-11-2015 00:45:00 9.4 C 7.78 g/m*3 6.38 C 22.5 km/h
11 15-11-2015 00:50:00 9.5 C 7.83 g/m*3 6.37 C 24.1 km/h
12 15-11-2015 00:55:00 9.5 C 7.92 g/m*3 5.77 C 32.2 km/h
13 15-11-2015 01:00:00 9.6 C 7.88 g/m*3 6.64 C 22.5 km/h
14 15-11-2015 01:05:00 9.6 C 7.88 g/m*3 6.12 C 29 km/h
15 15-11-2015 01:10:00 9.6 C 7.88 g/m*3 6.37 C 25.7 km/h
16 15-11-2015 01:15:00 9.6 C 7.97 g/m*3 6.64 C 22.5 km/h
17 15-11-2015 01:20:00 9.6 C 7.97 g/m*3 6.5 C 24.1 km/h
18 15-11-2015 01:25:00 9.6 C 7.97 g/m*3 6.79 C 20.9 km/h
19 15-11-2015 01:30:00 9.7 C 8.02 g/m*3 6.63 C 24.1 km/h
20 15-11-2015 01:35:00 9.7 C 8.02 g/m*3 6.14 C 30.6 km/h
21 15-11-2015 01:40:00 9.7 C 8.02 g/m*3 6.77 C 22.5 km/h
22 15-11-2015 01:45:00 9.7 C 8.02 g/m*3 6.91 C 20.9 km/h
23 15-11-2015 01:50:00 9.8 C 8.07 g/m*3 7.19 C 19.3 km/h
24 15-11-2015 01:55:00 9.8 C 8.07 g/m*3 7.73 C 14.5 km/h
25 15-11-2015 02:00:00 9.8 C 8.07 g/m*3 6.89 C 22.5 km/h
Sensor: Nr:Datum:Temp:Abs-Feuchte:Windchill:Wind:
Aussen-T/F 26 15-11-2015 02:05:00 9.9 C 8.12 g/m*3 7.02 C 22.5 km/h
27 15-11-2015 02:10:00 9.9 C 8.12 g/m*3 7.85 C 14.5 km/h
28 15-11-2015 02:15:00 9.9 C 8.12 g/m*3 6.51 C 29 km/h
29 15-11-2015 02:20:00 9.9 C 8.12 g/m*3 6.63 C 27.4 km/h
30 15-11-2015 02:25:00 9.9 C 8.22 g/m*3 7.16 C 20.9 km/h
31 15-11-2015 02:30:00 9.9 C 8.22 g/m*3 7.32 C 19.3 km/h
32 15-11-2015 02:35:00 9.9 C 8.22 g/m*3 7.16 C 20.9 km/h
33 15-11-2015 02:40:00 9.9 C 8.22 g/m*3 7.32 C 19.3 km/h
34 15-11-2015 02:45:00 10 C 8.27 g/m*3 7.15 C 22.5 km/h
35 15-11-2015 02:50:00 10 C 8.27 g/m*3 7.15 C 22.5 km/h
36 15-11-2015 02:55:00 10.1 C 8.32 g/m*3 7.57 C 19.3 km/h
37 15-11-2015 03:00:00 10.1 C 8.32 g/m*3 8.1 C 14.5 km/h
38 15-11-2015 03:05:00 10.1 C 8.32 g/m*3 7.28 C 22.5 km/h
39 15-11-2015 03:10:00 10.2 C 8.37 g/m*3 8.03 C 16.1 km/h
40 15-11-2015 03:15:00 10.2 C 8.37 g/m*3 8.92 C 9.7 km/h
41 15-11-2015 03:20:00 10.2 C 8.37 g/m*3 7.7 C 19.3 km/h
42 15-11-2015 03:25:00 10.2 C 8.37 g/m*3 7.4 C 22.5 km/h
43 15-11-2015 03:30:00 10.3 C 8.43 g/m*3 7.4 C 24.1 km/h
44 15-11-2015 03:35:00 10.3 C 8.43 g/m*3 7.4 C 24.1 km/h
45 15-11-2015 03:40:00 10.3 C 8.43 g/m*3 7.53 C 22.5 km/h
46 15-11-2015 03:45:00 10.4 C 8.48 g/m*3 7.8 C 20.9 km/h
47 15-11-2015 03:50:00 10.4 C 8.58 g/m*3 7.4 C 25.7 km/h
48 15-11-2015 03:55:00 10.4 C 8.58 g/m*3 6.76 C 35.4 km/h
49 15-11-2015 04:00:00 10.3 C 8.52 g/m*3 7.82 C 19.3 km/h
50 15-11-2015 04:05:00 10.3 C 8.62 g/m*3 8.16 C 16.1 km/h
Sensor: Nr:Datum:Temp:Abs-Feuchte:Windchill:Wind:
Aussen-T/F 51 15-11-2015 04:10:00 10.4 C 8.58 g/m*3 7.06 C 30.6 km/h
52 15-11-2015 04:15:00 10.4 C 8.58 g/m*3 7.95 C 19.3 km/h
53 15-11-2015 04:20:00 10.4 C 8.58 g/m*3 7.16 C 29 km/h
54 15-11-2015 04:25:00 10.6 C 8.69 g/m*3 7.78 C 24.1 km/h
55 15-11-2015 04:30:00 10.6 C 8.69 g/m*3 7.32 C 30.6 km/h
56 15-11-2015 04:35:00 10.7 C 8.64 g/m*3 7.66 C 27.4 km/h
57 15-11-2015 04:40:00 10.8 C 8.7 g/m*3 7.68 C 29 km/h
58 15-11-2015 04:45:00 10.9 C 8.75 g/m*3 8.05 C 25.7 km/h
59 15-11-2015 04:50:00 10.9 C 8.65 g/m*3 7.81 C 29 km/h
60 15-11-2015 04:55:00 11 C 8.71 g/m*3 8.3 C 24.1 km/h
61 15-11-2015 05:00:00 11 C 8.71 g/m*3 8.3 C 24.1 km/h
62 15-11-2015 05:05:00 11.1 C 8.76 g/m*3 11.1 C 14.5 km/h
63 15-11-2015 05:10:00 11.1 C 8.86 g/m*3 11.1 C 22.5 km/h
64 15-11-2015 05:15:00 11.1 C 8.86 g/m*3 11.1 C 17.7 km/h
65 15-11-2015 05:20:00 11.1 C 8.86 g/m*3 11.1 C 16.1 km/h
66 15-11-2015 05:25:00 11.2 C 8.92 g/m*3 11.2 C 11.3 km/h
67 15-11-2015 05:30:00 11.2 C 8.92 g/m*3 11.2 C 16.1 km/h
68 15-11-2015 05:35:00 11.2 C 8.92 g/m*3 11.2 C 22.5 km/h
69 15-11-2015 05:40:00 11.2 C 8.92 g/m*3 11.2 C 16.1 km/h
70 15-11-2015 05:45:00 11.2 C 8.92 g/m*3 11.2 C 19.3 km/h
71 15-11-2015 05:50:00 11.2 C 8.92 g/m*3 11.2 C 14.5 km/h
72 15-11-2015 05:55:00 11.2 C 8.92 g/m*3 11.2 C 11.3 km/h
73 15-11-2015 06:00:00 11.2 C 8.92 g/m*3 11.2 C 17.7 km/h
74 15-11-2015 06:05:00 11.2 C 8.92 g/m*3 11.2 C 12.9 km/h
75 15-11-2015 06:10:00 11.2 C 8.92 g/m*3 11.2 C 12.9 km/h
Sensor: Nr:Datum:Temp:Abs-Feuchte:Windchill:Wind:
Aussen-T/F 76 15-11-2015 06:15:00 11.2 C 8.92 g/m*3 11.2 C 17.7 km/h
77 15-11-2015 06:20:00 11.3 C 9.08 g/m*3 11.3 C 20.9 km/h
78 15-11-2015 06:25:00 11.3 C 9.08 g/m*3 11.3 C 12.9 km/h
79 15-11-2015 06:30:00 11.3 C 9.08 g/m*3 11.3 C 12.9 km/h
80 15-11-2015 06:35:00 11.3 C 9.08 g/m*3 11.3 C 9.7 km/h
81 15-11-2015 06:40:00 11.3 C 8.98 g/m*3 11.3 C 19.3 km/h
82 15-11-2015 06:45:00 11.4 C 9.03 g/m*3 11.4 C 19.3 km/h
83 15-11-2015 06:50:00 11.4 C 9.03 g/m*3 11.4 C 19.3 km/h
84 15-11-2015 06:55:00 11.5 C 9.09 g/m*3 11.5 C 12.9 km/h
85 15-11-2015 07:00:00 11.6 C 9.15 g/m*3 11.6 C 27.4 km/h
86 15-11-2015 07:05:00 11.6 C 9.15 g/m*3 11.6 C 17.7 km/h
87 15-11-2015 07:10:00 11.7 C 9.1 g/m*3 11.7 C 24.1 km/h
88 15-11-2015 07:15:00 11.7 C 9.1 g/m*3 11.7 C 17.7 km/h
89 15-11-2015 07:20:00 11.7 C 9.1 g/m*3 11.7 C 14.5 km/h
90 15-11-2015 07:25:00 11.8 C 9.16 g/m*3 11.8 C 17.7 km/h
91 15-11-2015 07:30:00 11.8 C 9.16 g/m*3 11.8 C 12.9 km/h
92 15-11-2015 07:35:00 11.8 C 9.16 g/m*3 11.8 C 20.9 km/h
93 15-11-2015 07:40:00 11.9 C 9.21 g/m*3 11.9 C 20.9 km/h
94 15-11-2015 07:45:00 11.9 C 9.11 g/m*3 11.9 C 19.3 km/h
95 15-11-2015 07:50:00 12 C 9.17 g/m*3 12 C 19.3 km/h
96 15-11-2015 07:55:00 12 C 9.17 g/m*3 12 C 17.7 km/h
97 15-11-2015 08:00:00 12.1 C 9.22 g/m*3 12.1 C 16.1 km/h
98 15-11-2015 08:05:00 12.1 C 9.22 g/m*3 12.1 C 19.3 km/h
99 15-11-2015 08:10:00 12.1 C 9.22 g/m*3 12.1 C 11.3 km/h
100 15-11-2015 08:15:00 12.1 C 9.22 g/m*3 12.1 C 27.4 km/h
Sensor: Nr:Datum:Temp:Abs-Feuchte:Windchill:Wind:
Aussen-T/F 101 15-11-2015 08:20:00 12.2 C 9.28 g/m*3 12.2 C 25.7 km/h
102 15-11-2015 08:25:00 12.2 C 9.28 g/m*3 12.2 C 22.5 km/h
103 15-11-2015 08:30:00 12.2 C 9.28 g/m*3 12.2 C 16.1 km/h
104 15-11-2015 08:35:00 12.2 C 9.28 g/m*3 12.2 C 24.1 km/h
105 15-11-2015 08:40:00 12.2 C 9.28 g/m*3 12.2 C 17.7 km/h
106 15-11-2015 08:45:00 12.3 C 9.34 g/m*3 12.3 C 20.9 km/h
107 15-11-2015 08:50:00 12.3 C 9.34 g/m*3 12.3 C 14.5 km/h
108 15-11-2015 08:55:00 12.3 C 9.34 g/m*3 12.3 C 16.1 km/h
109 15-11-2015 09:00:00 12.3 C 9.34 g/m*3 12.3 C 22.5 km/h
110 15-11-2015 09:05:00 12.4 C 9.4 g/m*3 12.4 C 17.7 km/h
111 15-11-2015 09:10:00 12.5 C 9.35 g/m*3 12.5 C 12.9 km/h
112 15-11-2015 09:15:00 12.6 C 9.4 g/m*3 12.6 C 17.7 km/h
113 15-11-2015 09:20:00 12.7 C 9.46 g/m*3 12.7 C 27.4 km/h
114 15-11-2015 09:25:00 12.7 C 9.46 g/m*3 12.7 C 12.9 km/h
115 15-11-2015 09:30:00 12.7 C 9.46 g/m*3 12.7 C 14.5 km/h
116 15-11-2015 09:35:00 12.8 C 9.52 g/m*3 12.8 C 25.7 km/h
117 15-11-2015 09:40:00 12.8 C 9.52 g/m*3 12.8 C 20.9 km/h
118 15-11-2015 09:45:00 12.9 C 9.47 g/m*3 12.9 C 24.1 km/h
119 15-11-2015 09:50:00 12.9 C 9.47 g/m*3 12.9 C 20.9 km/h
120 15-11-2015 09:55:00 13 C 9.53 g/m*3 13 C 17.7 km/h
121 15-11-2015 10:00:00 13 C 9.53 g/m*3 13 C 25.7 km/h
122 15-11-2015 10:05:00 13.1 C 9.59 g/m*3 13.1 C 17.7 km/h
123 15-11-2015 10:10:00 13.2 C 9.64 g/m*3 13.2 C 16.1 km/h
124 15-11-2015 10:15:00 13.3 C 9.7 g/m*3 13.3 C 19.3 km/h
125 15-11-2015 10:20:00 13.3 C 9.7 g/m*3 13.3 C 24.1 km/h
Sensor: Nr:Datum:Temp:Abs-Feuchte:Windchill:Wind:
Aussen-T/F 126 15-11-2015 10:25:00 13.4 C 9.76 g/m*3 13.4 C 14.5 km/h
127 15-11-2015 10:30:00 13.6 C 9.77 g/m*3 13.6 C 22.5 km/h
128 15-11-2015 10:35:00 13.6 C 9.77 g/m*3 13.6 C 22.5 km/h
129 15-11-2015 10:40:00 13.7 C 9.83 g/m*3 13.7 C 16.1 km/h
130 15-11-2015 10:45:00 13.8 C 9.89 g/m*3 13.8 C 19.3 km/h
131 15-11-2015 10:50:00 13.9 C 9.83 g/m*3 13.9 C 17.7 km/h
132 15-11-2015 10:55:00 14 C 9.89 g/m*3 14 C 19.3 km/h
133 15-11-2015 11:00:00 14.1 C 9.95 g/m*3 14.1 C 22.5 km/h
134 15-11-2015 11:05:00 14.2 C 9.89 g/m*3 14.2 C 24.1 km/h
135 15-11-2015 11:10:00 14.2 C 9.89 g/m*3 14.2 C 27.4 km/h
136 15-11-2015 11:15:00 14.3 C 9.95 g/m*3 14.3 C 25.7 km/h
137 15-11-2015 11:20:00 14.4 C 10.01 g/m*3 14.4 C 22.5 km/h
138 15-11-2015 11:25:00 14.4 C 10.01 g/m*3 14.4 C 17.7 km/h
139 15-11-2015 11:30:00 14.5 C 9.95 g/m*3 14.5 C 20.9 km/h
140 15-11-2015 11:35:00 14.6 C 10.01 g/m*3 14.6 C 19.3 km/h
141 15-11-2015 11:40:00 14.6 C 10.14 g/m*3 14.6 C 19.3 km/h
142 15-11-2015 11:45:00 14.6 C 10.14 g/m*3 14.6 C 22.5 km/h
143 15-11-2015 11:50:00 14.6 C 10.01 g/m*3 14.6 C 22.5 km/h
144 15-11-2015 11:55:00 14.7 C 10.07 g/m*3 14.7 C 22.5 km/h
145 15-11-2015 12:00:00 14.8 C 10.13 g/m*3 14.8 C 17.7 km/h
146 15-11-2015 12:05:00 14.8 C 10.13 g/m*3 14.8 C 25.7 km/h
147 15-11-2015 12:10:00 14.9 C 10.2 g/m*3 14.9 C 17.7 km/h
148 15-11-2015 12:15:00 14.9 C 10.2 g/m*3 14.9 C 20.9 km/h
149 15-11-2015 12:20:00 14.9 C 10.2 g/m*3 14.9 C 22.5 km/h
150 15-11-2015 12:25:00 14.8 C 10.13 g/m*3 14.8 C 29 km/h
Sensor: Nr:Datum:Temp:Abs-Feuchte:Windchill:Wind:
Aussen-T/F 151 15-11-2015 12:30:00 14.8 C 10.01 g/m*3 14.8 C 22.5 km/h
152 15-11-2015 12:35:00 14.8 C 10.01 g/m*3 14.8 C 24.1 km/h
153 15-11-2015 12:40:00 14.8 C 10.01 g/m*3 14.8 C 29 km/h
154 15-11-2015 12:45:00 14.8 C 10.13 g/m*3 14.8 C 17.7 km/h
155 15-11-2015 12:50:00 14.8 C 10.13 g/m*3 14.8 C 24.1 km/h
156 15-11-2015 12:55:00 14.8 C 10.13 g/m*3 14.8 C 24.1 km/h
157 15-11-2015 13:00:00 14.8 C 10.13 g/m*3 14.8 C 20.9 km/h
158 15-11-2015 13:05:00 14.8 C 10.13 g/m*3 14.8 C 27.4 km/h
159 15-11-2015 13:10:00 14.9 C 10.2 g/m*3 14.9 C 22.5 km/h
160 15-11-2015 13:15:00 15 C 10.13 g/m*3 15 C 19.3 km/h
161 15-11-2015 13:20:00 15.1 C 10.19 g/m*3 15.1 C 17.7 km/h
162 15-11-2015 13:25:00 15.2 C 10.25 g/m*3 15.2 C 19.3 km/h
163 15-11-2015 13:30:00 15.3 C 10.19 g/m*3 15.3 C 20.9 km/h
164 15-11-2015 13:35:00 15.3 C 10.19 g/m*3 15.3 C 22.5 km/h
165 15-11-2015 13:40:00 15.2 C 10.25 g/m*3 15.2 C 17.7 km/h
166 15-11-2015 13:45:00 15.2 C 10.25 g/m*3 15.2 C 24.1 km/h
167 15-11-2015 13:50:00 15.2 C 10.25 g/m*3 15.2 C 30.6 km/h
168 15-11-2015 13:55:00 15.1 C 10.19 g/m*3 15.1 C 24.1 km/h
169 15-11-2015 14:00:00 15.1 C 10.19 g/m*3 15.1 C 17.7 km/h
170 15-11-2015 14:05:00 15.1 C 10.19 g/m*3 15.1 C 19.3 km/h
171 15-11-2015 14:10:00 14.9 C 10.07 g/m*3 14.9 C 27.4 km/h
172 15-11-2015 14:15:00 14.9 C 10.07 g/m*3 14.9 C 16.1 km/h
173 15-11-2015 14:20:00 14.9 C 10.07 g/m*3 14.9 C 20.9 km/h
174 15-11-2015 14:25:00 14.9 C 10.07 g/m*3 14.9 C 20.9 km/h
175 15-11-2015 14:30:00 14.9 C 10.07 g/m*3 14.9 C 24.1 km/h
Sensor: Nr:Datum:Temp:Abs-Feuchte:Windchill:Wind:
Aussen-T/F 176 15-11-2015 14:35:00 14.9 C 10.07 g/m*3 14.9 C 17.7 km/h
177 15-11-2015 14:40:00 14.9 C 10.07 g/m*3 14.9 C 19.3 km/h
178 15-11-2015 14:45:00 14.9 C 10.07 g/m*3 14.9 C 19.3 km/h
179 15-11-2015 14:50:00 14.8 C 10.01 g/m*3 14.8 C 29 km/h
180 15-11-2015 14:55:00 14.8 C 10.01 g/m*3 14.8 C 30.6 km/h
181 15-11-2015 15:00:00 14.8 C 10.01 g/m*3 14.8 C 17.7 km/h
182 15-11-2015 15:05:00 14.8 C 10.01 g/m*3 14.8 C 22.5 km/h
183 15-11-2015 15:10:00 14.7 C 9.95 g/m*3 14.7 C 16.1 km/h
184 15-11-2015 15:15:00 14.7 C 9.95 g/m*3 14.7 C 27.4 km/h
185 15-11-2015 15:20:00 14.7 C 10.07 g/m*3 14.7 C 17.7 km/h
186 15-11-2015 15:25:00 14.7 C 10.07 g/m*3 14.7 C 14.5 km/h
187 15-11-2015 15:30:00 14.7 C 9.95 g/m*3 14.7 C 14.5 km/h
188 15-11-2015 15:35:00 14.7 C 10.07 g/m*3 14.7 C 16.1 km/h
189 15-11-2015 15:40:00 14.7 C 10.07 g/m*3 14.7 C 24.1 km/h
190 15-11-2015 15:45:00 14.7 C 9.95 g/m*3 14.7 C 17.7 km/h
191 15-11-2015 15:50:00 14.7 C 9.95 g/m*3 14.7 C 22.5 km/h
192 15-11-2015 15:55:00 14.7 C 9.95 g/m*3 14.7 C 20.9 km/h
193 15-11-2015 16:00:00 14.7 C 9.95 g/m*3 14.7 C 16.1 km/h
194 15-11-2015 16:05:00 14.6 C 9.89 g/m*3 14.6 C 16.1 km/h
195 15-11-2015 16:10:00 14.6 C 10.01 g/m*3 14.6 C 16.1 km/h
196 15-11-2015 16:15:00 14.5 C 9.95 g/m*3 14.5 C 20.9 km/h
197 15-11-2015 16:20:00 14.4 C 9.89 g/m*3 14.4 C 19.3 km/h
198 15-11-2015 16:25:00 14.3 C 9.83 g/m*3 14.3 C 20.9 km/h
199 15-11-2015 16:30:00 14.3 C 9.83 g/m*3 14.3 C 17.7 km/h
200 15-11-2015 16:35:00 14.2 C 9.89 g/m*3 14.2 C 24.1 km/h
Sensor: Nr:Datum:Temp:Abs-Feuchte:Windchill:Wind:
Aussen-T/F 201 15-11-2015 16:40:00 14.1 C 9.83 g/m*3 14.1 C 12.9 km/h
202 15-11-2015 16:45:00 14 C 9.77 g/m*3 14 C 11.3 km/h
203 15-11-2015 16:50:00 13.9 C 9.83 g/m*3 13.9 C 11.3 km/h
204 15-11-2015 16:55:00 13.8 C 9.77 g/m*3 13.8 C 16.1 km/h
205 15-11-2015 17:00:00 13.7 C 9.71 g/m*3 13.7 C 17.7 km/h
206 15-11-2015 17:05:00 13.7 C 9.83 g/m*3 13.7 C 17.7 km/h
207 15-11-2015 17:10:00 13.7 C 9.83 g/m*3 13.7 C 12.9 km/h
208 15-11-2015 17:15:00 13.6 C 9.77 g/m*3 13.6 C 16.1 km/h
209 15-11-2015 17:20:00 13.6 C 9.77 g/m*3 13.6 C 12.9 km/h
210 15-11-2015 17:25:00 13.4 C 9.65 g/m*3 13.4 C 14.5 km/h
211 15-11-2015 17:30:00 13.4 C 9.76 g/m*3 13.4 C 12.9 km/h
212 15-11-2015 17:35:00 13.4 C 9.76 g/m*3 13.4 C 19.3 km/h
213 15-11-2015 17:40:00 13.3 C 9.7 g/m*3 13.3 C 14.5 km/h
214 15-11-2015 17:45:00 13.3 C 9.7 g/m*3 13.3 C 11.3 km/h
215 15-11-2015 17:50:00 13.3 C 9.7 g/m*3 13.3 C 19.3 km/h
216 15-11-2015 17:55:00 13.3 C 9.7 g/m*3 13.3 C 12.9 km/h
217 15-11-2015 18:00:00 13.3 C 9.7 g/m*3 13.3 C 14.5 km/h
218 15-11-2015 18:05:00 13.3 C 9.7 g/m*3 13.3 C 14.5 km/h
219 15-11-2015 18:10:00 13.3 C 9.7 g/m*3 13.3 C 14.5 km/h
220 15-11-2015 18:15:00 13.3 C 9.7 g/m*3 13.3 C 9.7 km/h
221 15-11-2015 18:20:00 13.2 C 9.64 g/m*3 13.2 C 12.9 km/h
222 15-11-2015 18:25:00 13.2 C 9.64 g/m*3 13.2 C 19.3 km/h
223 15-11-2015 18:30:00 13.2 C 9.64 g/m*3 13.2 C 16.1 km/h
224 15-11-2015 18:35:00 13.2 C 9.64 g/m*3 13.2 C 17.7 km/h
225 15-11-2015 18:40:00 13.2 C 9.64 g/m*3 13.2 C 12.9 km/h
Sensor: Nr:Datum:Temp:Abs-Feuchte:Windchill:Wind:
Aussen-T/F 226 15-11-2015 18:45:00 13.2 C 9.64 g/m*3 13.2 C 19.3 km/h
227 15-11-2015 18:50:00 13.2 C 9.64 g/m*3 13.2 C 19.3 km/h
228 15-11-2015 18:55:00 13.2 C 9.64 g/m*3 13.2 C 16.1 km/h
229 15-11-2015 19:00:00 13.2 C 9.64 g/m*3 13.2 C 8.1 km/h
230 15-11-2015 19:05:00 13.1 C 9.59 g/m*3 13.1 C 14.5 km/h
231 15-11-2015 19:10:00 13.2 C 9.64 g/m*3 13.2 C 14.5 km/h
232 15-11-2015 19:15:00 13.2 C 9.53 g/m*3 13.2 C 11.3 km/h
233 15-11-2015 19:20:00 13.1 C 9.47 g/m*3 13.1 C 12.9 km/h
234 15-11-2015 19:25:00 13.2 C 9.53 g/m*3 13.2 C 19.3 km/h
235 15-11-2015 19:30:00 13.1 C 9.47 g/m*3 13.1 C 8.1 km/h
236 15-11-2015 19:35:00 13.1 C 9.47 g/m*3 13.1 C 16.1 km/h
237 15-11-2015 19:40:00 13.1 C 9.47 g/m*3 13.1 C 19.3 km/h
238 15-11-2015 19:45:00 13.2 C 9.53 g/m*3 13.2 C 16.1 km/h
239 15-11-2015 19:50:00 13.1 C 9.47 g/m*3 13.1 C 19.3 km/h
240 15-11-2015 19:55:00 13.1 C 9.47 g/m*3 13.1 C 17.7 km/h
241 15-11-2015 20:00:00 13.1 C 9.47 g/m*3 13.1 C 12.9 km/h
242 15-11-2015 20:05:00 13.1 C 9.47 g/m*3 13.1 C 16.1 km/h
243 15-11-2015 20:10:00 13.1 C 9.36 g/m*3 13.1 C 16.1 km/h
244 15-11-2015 20:15:00 13.1 C 9.36 g/m*3 13.1 C 14.5 km/h
245 15-11-2015 20:20:00 12.9 C 9.35 g/m*3 12.9 C 14.5 km/h
246 15-11-2015 20:25:00 12.9 C 9.35 g/m*3 12.9 C 19.3 km/h
247 15-11-2015 20:30:00 12.8 C 9.3 g/m*3 12.8 C 12.9 km/h
248 15-11-2015 20:35:00 12.8 C 9.3 g/m*3 12.8 C 17.7 km/h
249 15-11-2015 20:40:00 12.7 C 9.24 g/m*3 12.7 C 16.1 km/h
250 15-11-2015 20:45:00 12.7 C 9.24 g/m*3 12.7 C 12.9 km/h
Sensor: Nr:Datum:Temp:Abs-Feuchte:Windchill:Wind:
Aussen-T/F 251 15-11-2015 20:50:00 12.8 C 9.3 g/m*3 12.8 C 22.5 km/h
252 15-11-2015 20:55:00 12.8 C 9.3 g/m*3 12.8 C 11.3 km/h
253 15-11-2015 21:00:00 12.7 C 9.24 g/m*3 12.7 C 9.7 km/h
254 15-11-2015 21:05:00 12.8 C 9.3 g/m*3 12.8 C 16.1 km/h
255 15-11-2015 21:10:00 12.7 C 9.24 g/m*3 12.7 C 17.7 km/h
256 15-11-2015 21:15:00 12.8 C 9.3 g/m*3 12.8 C 12.9 km/h
257 15-11-2015 21:20:00 12.7 C 9.24 g/m*3 12.7 C 6.4 km/h
258 15-11-2015 21:25:00 12.7 C 9.35 g/m*3 12.7 C 3.2 km/h
259 15-11-2015 21:30:00 12.7 C 9.35 g/m*3 12.7 C 12.9 km/h
260 15-11-2015 21:35:00 12.7 C 9.35 g/m*3 12.7 C 17.7 km/h
261 15-11-2015 21:40:00 12.6 C 9.29 g/m*3 12.6 C 6.4 km/h
262 15-11-2015 21:45:00 12.6 C 9.29 g/m*3 12.6 C 4.8 km/h
263 15-11-2015 21:50:00 12.6 C 9.29 g/m*3 12.6 C 6.4 km/h
264 15-11-2015 21:55:00 12.6 C 9.29 g/m*3 12.6 C 3.2 km/h
265 15-11-2015 22:00:00 12.4 C 9.29 g/m*3 12.4 C 1.6 km/h
266 15-11-2015 22:05:00 12.4 C 9.29 g/m*3 12.4 C 4.8 km/h
267 15-11-2015 22:10:00 12.4 C 9.29 g/m*3 12.4 C 4.8 km/h
268 15-11-2015 22:15:00 12.4 C 9.29 g/m*3 12.4 C 3.2 km/h
269 15-11-2015 22:20:00 12.4 C 9.29 g/m*3 12.4 C 3.2 km/h
270 15-11-2015 22:25:00 12.6 C 9.4 g/m*3 12.6 C 3.2 km/h
271 15-11-2015 22:30:00 12.5 C 9.35 g/m*3 12.5 C 1.6 km/h
272 15-11-2015 22:35:00 12.5 C 9.35 g/m*3 12.5 C 4.8 km/h
273 15-11-2015 22:40:00 12.5 C 9.35 g/m*3 12.5 C 1.6 km/h
274 15-11-2015 22:45:00 12.5 C 9.46 g/m*3 12.5 C 4.8 km/h
275 15-11-2015 22:50:00 12.5 C 9.46 g/m*3 12.5 C 1.6 km/h
Sensor: Nr:Datum:Temp:Abs-Feuchte:Windchill:Wind:
Aussen-T/F 276 15-11-2015 22:55:00 12.5 C 9.35 g/m*3 12.5 C 0 km/h
277 15-11-2015 23:00:00 12.5 C 9.46 g/m*3 12.5 C 3.2 km/h
278 15-11-2015 23:05:00 12.4 C 9.4 g/m*3 12.4 C 0 km/h
279 15-11-2015 23:10:00 12.4 C 9.4 g/m*3 12.4 C 6.4 km/h
280 15-11-2015 23:15:00 12.3 C 9.34 g/m*3 12.3 C 6.4 km/h
281 15-11-2015 23:20:00 12.3 C 9.34 g/m*3 12.3 C 6.4 km/h
282 15-11-2015 23:25:00 12.3 C 9.34 g/m*3 12.3 C 8.1 km/h
283 15-11-2015 23:30:00 12.3 C 9.23 g/m*3 12.3 C 16.1 km/h
284 15-11-2015 23:35:00 12.3 C 9.23 g/m*3 12.3 C 4.8 km/h
285 15-11-2015 23:40:00 12.3 C 9.23 g/m*3 12.3 C 6.4 km/h
286 15-11-2015 23:45:00 12.2 C 9.17 g/m*3 12.2 C 4.8 km/h
287 15-11-2015 23:50:00 12.1 C 9.22 g/m*3 12.1 C 6.4 km/h
288 15-11-2015 23:55:00 12.1 C 9.22 g/m*3 12.1 C 6.4 km/h

Legende:
   Min
   Max


Maximal/Minimal-Werte vom 15.11.2015 - 15.11.2015

Sensor Min Max Avg
Temp
(Aussen-T/F)
9.3 °C
15-11-2015  00:00:00
15.3 °C
15-11-2015  13:30:00
12.54 °C
Abs-Feuchte
(Aussen-T/F)
7.73 g/m*3
15-11-2015  00:00:00
10.25 g/m*3
15-11-2015  13:25:00
9.26 g/m*3
Windchill
(Aussen-T/F)
5.07 C
15-11-2015  00:35:00
15.3 C
15-11-2015  13:30:00
11.89 C

Die Daten stammen von einer Davis Vantage Pro 2 Wetter-Station und werden unter Linux mit der Software wview2wettercgi und aufbereitet. Alle Angaben erfolgen ohne Gewähr für ihre Vollständigkeit oder Richtigkeit.
Kontakt: Rainer Krienke krienke@uni-koblenz.de . Meine Webseiten an der Uni Koblenz oder privat.
Version: $Revision: 0.78 $